Time;durP1;ratioP1;P1;durP2;ratioP2;P2;SDS_P1;SDS_P2;PMS_P1;PMS_P2;Temp;Humidity;BMP_temperature;BMP_pressure;BME280_temperature;BME280_humidity;BME280_pressure;Samples;Min_cycle;Max_cycle;Signal;HPM_P1;HPM_P2
2022/08/08 00:02:07;;;;;;;7.05;3.22;;;14.70;99.90;;;;;;5014706;28;20046;-54
2022/08/08 00:04:42;;;;;;;6.28;3.15;;;14.70;99.90;;;;;;5003604;28;20061;-55
2022/08/08 00:07:23;;;;;;;5.90;3.00;;;14.70;99.90;;;;;;5021226;28;20033;-55
2022/08/08 00:10:07;;;;;;;6.68;3.15;;;14.70;99.90;;;;;;5024657;28;20160;-55
2022/08/08 00:12:41;;;;;;;5.72;3.10;;;14.60;99.90;;;;;;5018843;28;20408;-55
2022/08/08 00:15:18;;;;;;;5.82;3.35;;;14.60;99.90;;;;;;5016565;28;20500;-53
2022/08/08 00:18:02;;;;;;;5.20;3.17;;;14.50;99.90;;;;;;4996408;28;20065;-55
2022/08/08 00:20:27;;;;;;;6.72;3.00;;;14.50;99.90;;;;;;5021484;28;20427;-55
2022/08/08 00:23:01;;;;;;;5.55;2.88;;;14.50;99.90;;;;;;5003057;28;20049;-52
2022/08/08 00:25:37;;;;;;;6.13;3.47;;;14.40;99.90;;;;;;5020533;28;20107;-55
2022/08/08 00:28:06;;;;;;;3.90;2.45;;;14.40;99.90;;;;;;5014720;28;20046;-54
2022/08/08 00:30:36;;;;;;;7.13;3.00;;;14.40;99.90;;;;;;5019637;28;20041;-55
2022/08/08 00:33:12;;;;;;;5.05;3.60;;;14.50;99.90;;;;;;5024206;28;20047;-55
2022/08/08 00:36:05;;;;;;;5.32;3.60;;;14.40;99.90;;;;;;5021260;28;20485;-55
2022/08/08 00:39:04;;;;;;;9.35;3.85;;;14.40;99.90;;;;;;5017395;28;20546;-54
2022/08/08 00:41:36;;;;;;;5.35;3.78;;;14.30;99.90;;;;;;5019976;28;20041;-53
2022/08/08 00:44:29;;;;;;;3.85;2.58;;;14.30;99.90;;;;;;5000088;28;20139;-54
2022/08/08 00:47:15;;;;;;;4.38;2.83;;;14.20;99.90;;;;;;5014484;28;20037;-54
2022/08/08 00:50:15;;;;;;;6.05;3.40;;;14.20;99.90;;;;;;5019760;28;20038;-54
2022/08/08 00:52:59;;;;;;;5.07;3.30;;;14.20;99.90;;;;;;5021097;28;20064;-55
2022/08/08 00:55:43;;;;;;;6.03;3.95;;;14.20;99.90;;;;;;5018909;28;22292;-54
2022/08/08 00:58:15;;;;;;;;;;;14.20;99.90;;;;;;5019405;28;20045;-58
2022/08/08 01:01:12;;;;;;;6.13;4.63;;;14.30;99.90;;;;;;5016942;28;19925;-51
2022/08/08 01:03:41;;;;;;;5.35;4.55;;;14.30;99.90;;;;;;5012394;28;20057;-53
2022/08/08 01:06:30;;;;;;;5.97;4.28;;;14.30;99.90;;;;;;5022896;28;20080;-52
2022/08/08 01:09:10;;;;;;;6.10;5.03;;;14.40;99.90;;;;;;5013953;28;20049;-55
2022/08/08 01:12:03;;;;;;;6.00;5.40;;;14.40;99.90;;;;;;5016748;28;20038;-55
2022/08/08 01:14:44;;;;;;;7.97;4.47;;;14.40;99.90;;;;;;5018729;28;20496;-55
2022/08/08 01:17:19;;;;;;;6.22;4.68;;;14.40;99.90;;;;;;5017783;28;20054;-55
2022/08/08 01:20:06;;;;;;;7.90;5.53;;;14.40;99.90;;;;;;5015343;28;20158;-54
2022/08/08 01:22:43;;;;;;;10.43;4.88;;;14.40;99.90;;;;;;4999973;28;20042;-56
2022/08/08 01:25:40;;;;;;;7.07;4.47;;;14.40;99.90;;;;;;5020433;28;20091;-56
2022/08/08 01:28:25;;;;;;;7.85;5.05;;;14.40;99.90;;;;;;5017597;28;20119;-56
2022/08/08 01:31:06;;;;;;;4.75;3.75;;;14.40;99.90;;;;;;5016552;28;20037;-54
2022/08/08 01:34:03;;;;;;;7.57;5.43;;;14.30;99.90;;;;;;5007456;28;20071;-55
2022/08/08 01:37:07;;;;;;;5.88;4.72;;;14.30;99.90;;;;;;5011762;28;20045;-53
2022/08/08 01:39:42;;;;;;;4.57;3.22;;;14.40;99.90;;;;;;5019081;28;20050;-51
2022/08/08 01:42:21;;;;;;;9.20;5.45;;;14.30;99.90;;;;;;5018318;28;20041;-56
2022/08/08 01:45:22;;;;;;;6.72;5.35;;;14.30;99.90;;;;;;5017742;28;20044;-54
2022/08/08 01:48:06;;;;;;;7.20;5.43;;;14.20;99.90;;;;;;4997174;28;20050;-54
2022/08/08 01:50:38;;;;;;;9.70;5.65;;;14.20;99.90;;;;;;5019514;28;20382;-53
2022/08/08 01:53:46;;;;;;;6.28;4.82;;;14.10;99.90;;;;;;5017219;28;20045;-54
2022/08/08 01:56:39;;;;;;;5.22;4.72;;;14.10;99.90;;;;;;5006580;28;20049;-53
2022/08/08 01:59:35;;;;;;;7.93;5.50;;;14.10;99.90;;;;;;5017503;28;20053;-56
2022/08/08 02:02:39;;;;;;;10.10;5.28;;;14.20;99.90;;;;;;5018336;28;20033;-51
2022/08/08 02:05:20;;;;;;;6.00;4.45;;;14.10;99.90;;;;;;5007936;28;20049;-54
2022/08/08 02:08:00;;;;;;;5.72;4.78;;;14.20;99.90;;;;;;5021554;28;20052;-55
2022/08/08 02:10:59;;;;;;;6.85;4.90;;;14.20;99.90;;;;;;5020567;28;20034;-55
2022/08/08 02:13:49;;;;;;;5.72;3.63;;;14.20;99.90;;;;;;5015403;28;20614;-55
2022/08/08 02:16:25;;;;;;;4.70;3.00;;;14.10;99.90;;;;;;5002196;28;20042;-55
2022/08/08 02:19:16;;;;;;;5.13;4.30;;;14.10;99.90;;;;;;5019993;28;20044;-55
2022/08/08 02:24:28;;;;;;;;;;;14.10;99.90;;;;;;5024622;28;20071;-55
2022/08/08 02:27:03;;;;;;;7.53;5.00;;;14.10;99.90;;;;;;5000035;28;20134;-56
2022/08/08 02:29:57;;;;;;;6.18;4.85;;;14.10;99.90;;;;;;5015021;28;20079;-55
2022/08/08 02:32:39;;;;;;;7.60;4.55;;;14.20;99.90;;;;;;5030577;28;20676;-55
2022/08/08 02:35:34;;;;;;;5.15;3.90;;;14.20;99.90;;;;;;5043744;22;20036;-62
2022/08/08 02:38:21;;;;;;;5.53;3.28;;;14.20;99.90;;;;;;5032939;28;20045;-56
2022/08/08 02:41:27;;;;;;;8.25;5.60;;;14.30;99.90;;;;;;5030922;28;20034;-57
2022/08/08 02:44:17;;;;;;;7.30;6.25;;;14.40;99.90;;;;;;5017711;28;20526;-56
2022/08/08 02:46:42;;;;;;;9.00;5.53;;;14.50;99.90;;;;;;5019507;28;20041;-59
2022/08/08 02:49:45;;;;;;;8.00;5.50;;;14.50;99.90;;;;;;5001952;28;20090;-58
2022/08/08 02:52:47;;;;;;;10.15;7.35;;;14.60;99.90;;;;;;5017879;28;20045;-60
2022/08/08 02:55:41;;;;;;;9.18;6.22;;;14.70;99.90;;;;;;5010082;28;20065;-59
2022/08/08 02:58:15;;;;;;;7.78;5.25;;;14.70;99.90;;;;;;5013658;28;20041;-59
2022/08/08 03:01:03;;;;;;;6.38;5.10;;;14.70;99.90;;;;;;5016647;28;20054;-56
2022/08/08 03:03:53;;;;;;;7.05;5.70;;;14.80;99.90;;;;;;5019103;28;22140;-55
2022/08/08 03:06:42;;;;;;;6.65;4.68;;;14.90;99.90;;;;;;5015687;28;20079;-59
2022/08/08 03:09:45;;;;;;;10.55;6.40;;;14.90;99.90;;;;;;5014942;28;20033;-57
2022/08/08 03:12:49;;;;;;;6.85;5.55;;;15.00;99.90;;;;;;5010786;28;20136;-61
2022/08/08 03:15:36;;;;;;;7.15;5.68;;;15.00;99.90;;;;;;4998873;28;20049;-62
2022/08/08 03:18:34;;;;;;;8.02;6.90;;;15.10;99.90;;;;;;4999464;28;20051;-59
2022/08/08 03:21:00;;;;;;;6.55;4.63;;;15.10;99.90;;;;;;4986106;28;20053;-57
2022/08/08 03:23:26;;;;;;;11.35;6.35;;;15.10;99.90;;;;;;4994038;28;20477;-60
2022/08/08 03:25:55;;;;;;;8.70;7.20;;;15.20;99.90;;;;;;5017220;28;20052;-60
2022/08/08 03:28:30;;;;;;;9.15;4.97;;;15.20;99.90;;;;;;5013949;28;20099;-57
2022/08/08 03:30:57;;;;;;;11.13;6.78;;;15.20;99.90;;;;;;4998651;28;20038;-60
2022/08/08 03:33:23;;;;;;;11.25;7.50;;;15.20;99.90;;;;;;5016150;28;20080;-60
2022/08/08 03:35:50;;;;;;;10.07;6.65;;;15.20;99.90;;;;;;5016997;28;20048;-59
2022/08/08 03:38:20;;;;;;;8.10;6.13;;;15.20;99.90;;;;;;5015313;28;20139;-59
2022/08/08 03:40:53;;;;;;;8.55;7.65;;;15.20;99.90;;;;;;5017642;28;20050;-58
2022/08/08 03:43:19;;;;;;;10.55;7.00;;;15.20;99.90;;;;;;4992311;28;20034;-59
2022/08/08 03:45:46;;;;;;;5.75;5.07;;;15.20;99.90;;;;;;5011739;28;20416;-61
2022/08/08 03:48:11;;;;;;;7.80;5.75;;;15.20;99.90;;;;;;5014738;28;20121;-60
2022/08/08 03:50:55;;;;;;;10.00;7.30;;;15.20;99.90;;;;;;5013258;28;20054;-60
2022/08/08 03:53:21;;;;;;;10.02;6.88;;;15.20;99.90;;;;;;5011545;28;20056;-58
2022/08/08 03:55:49;;;;;;;8.45;6.43;;;15.20;99.90;;;;;;5001958;28;20496;-57
2022/08/08 03:58:20;;;;;;;11.50;6.60;;;15.20;99.90;;;;;;5015089;28;20136;-61
2022/08/08 04:00:54;;;;;;;9.55;7.35;;;15.20;99.90;;;;;;5010813;28;20536;-60
2022/08/08 04:03:21;;;;;;;7.45;5.43;;;15.20;99.90;;;;;;5015265;28;20215;-58
2022/08/08 04:05:48;;;;;;;6.53;4.70;;;15.20;99.90;;;;;;5020283;28;20041;-60
2022/08/08 04:08:22;;;;;;;16.17;8.25;;;15.30;99.90;;;;;;5012438;28;20037;-58
2022/08/08 04:10:49;;;;;;;11.05;7.53;;;15.30;99.90;;;;;;5014541;28;20637;-60
2022/08/08 04:13:16;;;;;;;10.65;7.68;;;15.30;99.90;;;;;;5001042;28;20049;-60
2022/08/08 04:15:43;;;;;;;11.75;6.70;;;15.30;99.90;;;;;;5001552;28;20054;-59
2022/08/08 04:18:09;;;;;;;10.55;7.43;;;15.30;99.90;;;;;;5013162;28;20049;-56
2022/08/08 04:20:35;;;;;;;9.90;7.22;;;15.40;99.90;;;;;;5016068;28;20037;-58
2022/08/08 04:23:01;;;;;;;10.85;8.20;;;15.30;99.90;;;;;;5004447;28;20110;-57
2022/08/08 04:25:26;;;;;;;9.15;7.07;;;15.40;99.90;;;;;;5016748;28;20042;-56
2022/08/08 04:27:52;;;;;;;14.02;8.73;;;15.40;99.90;;;;;;4991394;28;20076;-58
2022/08/08 04:30:18;;;;;;;7.55;5.70;;;15.30;99.90;;;;;;5014300;28;20484;-60
2022/08/08 04:32:44;;;;;;;9.65;6.55;;;15.30;99.90;;;;;;5016831;28;20052;-60
2022/08/08 04:35:09;;;;;;;10.43;7.18;;;15.40;99.90;;;;;;5012561;28;20037;-59
2022/08/08 04:37:35;;;;;;;12.63;6.35;;;15.40;99.90;;;;;;5018746;28;20591;-59
2022/08/08 04:40:02;;;;;;;12.02;7.93;;;15.40;99.90;;;;;;5023484;28;20038;-57
2022/08/08 04:42:30;;;;;;;11.85;7.15;;;15.40;99.90;;;;;;5017466;28;20349;-57
2022/08/08 04:44:56;;;;;;;12.25;7.65;;;15.40;99.90;;;;;;5008263;28;21553;-56
2022/08/08 04:47:22;;;;;;;12.60;8.02;;;15.30;99.90;;;;;;5019187;28;20049;-60
2022/08/08 04:49:48;;;;;;;11.57;7.95;;;15.30;99.90;;;;;;5014347;28;20080;-61
2022/08/08 04:52:14;;;;;;;14.10;8.35;;;15.30;99.90;;;;;;5019622;28;20069;-61
2022/08/08 04:54:40;;;;;;;11.32;7.35;;;15.20;99.90;;;;;;5016607;28;20244;-58
2022/08/08 04:57:05;;;;;;;8.27;6.13;;;15.20;99.90;;;;;;5015565;28;20384;-60
2022/08/08 04:59:31;;;;;;;8.93;6.75;;;15.20;99.90;;;;;;5018181;28;20052;-60
2022/08/08 05:01:57;;;;;;;10.45;7.03;;;15.30;99.90;;;;;;5012805;28;20037;-62
2022/08/08 05:04:23;;;;;;;11.68;6.88;;;15.30;99.90;;;;;;5004212;28;20126;-61
2022/08/08 05:06:48;;;;;;;9.15;6.47;;;15.30;99.90;;;;;;5017284;28;20455;-61
2022/08/08 05:09:14;;;;;;;10.40;6.82;;;15.30;99.90;;;;;;5016163;28;20041;-61
2022/08/08 05:11:40;;;;;;;8.27;6.20;;;15.40;99.90;;;;;;5017893;28;20085;-60
2022/08/08 05:14:08;;;;;;;10.45;7.88;;;15.40;99.90;;;;;;5020019;28;20037;-61
2022/08/08 05:16:33;;;;;;;6.15;4.95;;;15.50;99.90;;;;;;5018935;28;20065;-61
2022/08/08 05:18:59;;;;;;;8.32;5.05;;;15.50;99.90;;;;;;5020384;28;20489;-62
2022/08/08 05:21:25;;;;;;;10.45;7.63;;;15.50;99.90;;;;;;5011771;28;20069;-61
2022/08/08 05:23:53;;;;;;;11.65;6.07;;;15.60;99.90;;;;;;5012485;28;20522;-60
2022/08/08 05:26:20;;;;;;;8.73;7.00;;;15.60;99.90;;;;;;5002589;28;20049;-61
2022/08/08 05:28:46;;;;;;;7.22;5.95;;;15.60;99.90;;;;;;5008840;28;20056;-61
2022/08/08 05:31:15;;;;;;;7.90;5.00;;;15.70;99.90;;;;;;5005419;28;20755;-62
2022/08/08 05:33:41;;;;;;;11.40;6.28;;;15.70;99.90;;;;;;5007504;28;20099;-61
2022/08/08 05:36:10;;;;;;;9.60;5.15;;;15.80;99.90;;;;;;5008294;28;20042;-60
2022/08/08 05:38:45;;;;;;;11.07;6.45;;;15.80;99.90;;;;;;5013424;28;20049;-62
2022/08/08 05:41:13;;;;;;;11.65;6.30;;;15.90;99.90;;;;;;4998778;28;20128;-61
2022/08/08 05:43:44;;;;;;;7.38;5.78;;;16.00;99.90;;;;;;5017067;28;20088;-61
2022/08/08 05:46:09;;;;;;;10.02;6.30;;;16.00;99.90;;;;;;5015950;28;20052;-61
2022/08/08 05:48:36;;;;;;;6.07;4.40;;;16.00;99.90;;;;;;5017040;28;20034;-63
2022/08/08 05:51:03;;;;;;;9.60;4.93;;;16.10;99.90;;;;;;5018186;28;20038;-63
2022/08/08 05:53:29;;;;;;;8.73;6.40;;;16.20;99.90;;;;;;5015354;28;20041;-63
2022/08/08 05:55:57;;;;;;;10.63;7.13;;;16.20;99.90;;;;;;4997883;28;20400;-61
2022/08/08 05:58:27;;;;;;;8.77;5.32;;;16.30;99.90;;;;;;5018609;28;20041;-62
2022/08/08 06:00:59;;;;;;;7.35;5.18;;;16.40;99.90;;;;;;5002903;28;20037;-62
2022/08/08 06:03:25;;;;;;;12.27;5.80;;;16.40;99.90;;;;;;5020105;28;20087;-61
2022/08/08 06:06:00;;;;;;;8.52;6.78;;;16.50;99.90;;;;;;5019964;28;20566;-62
2022/08/08 06:08:33;;;;;;;9.68;5.82;;;16.60;99.90;;;;;;5014383;28;20120;-62
2022/08/08 06:10:59;;;;;;;10.95;6.43;;;16.70;99.90;;;;;;5019629;28;20043;-62
2022/08/08 06:13:27;;;;;;;8.43;5.38;;;16.80;99.90;;;;;;5011531;28;20129;-62
2022/08/08 06:15:54;;;;;;;10.13;5.60;;;16.90;99.90;;;;;;5003325;28;20443;-63
2022/08/08 06:18:24;;;;;;;8.15;4.32;;;17.00;99.90;;;;;;5018840;28;20405;-62
2022/08/08 06:20:53;;;;;;;9.07;4.85;;;17.10;99.90;;;;;;5018834;28;20104;-62
2022/08/08 06:23:20;;;;;;;9.05;3.97;;;17.20;99.90;;;;;;5015150;28;20049;-62
2022/08/08 06:25:59;;;;;;;4.45;3.10;;;17.30;99.90;;;;;;5021479;28;20045;-62
2022/08/08 06:28:31;;;;;;;5.38;4.07;;;17.40;99.90;;;;;;5016176;28;20034;-63
2022/08/08 06:30:59;;;;;;;6.38;4.03;;;17.50;99.90;;;;;;5012381;28;20132;-60
2022/08/08 06:33:42;;;;;;;6.07;3.97;;;17.60;99.90;;;;;;5003353;28;20041;-60
2022/08/08 06:36:10;;;;;;;9.20;5.60;;;17.60;99.90;;;;;;5018591;28;20092;-59
2022/08/08 06:38:39;;;;;;;6.53;4.15;;;17.70;99.90;;;;;;5017855;28;20177;-60
2022/08/08 06:41:11;;;;;;;5.93;4.18;;;17.80;99.90;;;;;;5015692;28;20054;-59
2022/08/08 06:43:40;;;;;;;6.75;4.03;;;17.90;99.90;;;;;;5018957;28;20102;-61
2022/08/08 06:46:06;;;;;;;7.18;3.65;;;17.90;99.90;;;;;;5013456;28;20054;-61
2022/08/08 06:48:34;;;;;;;6.63;3.30;;;18.00;99.90;;;;;;5016351;28;20034;-62
2022/08/08 06:51:01;;;;;;;8.82;3.17;;;18.10;99.90;;;;;;5001348;28;20042;-62
2022/08/08 06:53:28;;;;;;;5.68;2.55;;;18.20;99.90;;;;;;5031921;28;20045;-60
2022/08/08 06:55:54;;;;;;;8.20;2.90;;;18.30;99.90;;;;;;5007461;28;20504;-60
2022/08/08 06:58:20;;;;;;;7.55;3.08;;;18.40;99.90;;;;;;5017203;28;20495;-62
2022/08/08 07:00:49;;;;;;;7.95;2.90;;;18.50;99.90;;;;;;5018967;28;20033;-61
2022/08/08 07:03:38;;;;;;;6.82;3.25;;;18.50;99.90;;;;;;5015785;28;20042;-59
2022/08/08 07:06:08;;;;;;;4.22;2.67;;;18.50;99.90;;;;;;5014380;28;20581;-62
2022/08/08 07:08:37;;;;;;;4.55;2.90;;;18.70;99.90;;;;;;5012535;28;20327;-61
2022/08/08 07:11:04;;;;;;;7.07;2.50;;;18.70;99.90;;;;;;5012091;28;20252;-62
2022/08/08 07:13:39;;;;;;;4.18;1.70;;;18.80;99.90;;;;;;4992354;28;20106;-62
2022/08/08 07:16:15;;;;;;;5.15;1.60;;;18.90;99.90;;;;;;5011798;28;20132;-62
2022/08/08 07:19:11;;;;;;;3.67;1.25;;;19.10;99.90;;;;;;4997947;28;20111;-62
2022/08/08 07:21:45;;;;;;;4.75;1.30;;;19.20;99.90;;;;;;5015850;28;20564;-62
2022/08/08 07:24:35;;;;;;;4.20;1.55;;;19.40;99.90;;;;;;5018737;28;20049;-61
2022/08/08 07:27:05;;;;;;;5.43;1.73;;;19.60;99.90;;;;;;5012927;28;20052;-60
2022/08/08 07:29:33;;;;;;;4.65;1.45;;;19.70;99.90;;;;;;5002313;28;20056;-61
2022/08/08 07:31:59;;;;;;;2.63;1.30;;;19.70;99.90;;;;;;5006727;28;20180;-62
2022/08/08 07:34:27;;;;;;;4.22;1.30;;;19.70;99.90;;;;;;5010708;28;20033;-61
2022/08/08 07:36:56;;;;;;;4.93;1.60;;;19.60;99.90;;;;;;5000074;28;20065;-61
2022/08/08 07:39:22;;;;;;;4.18;1.67;;;19.40;99.90;;;;;;5020552;28;20034;-61
2022/08/08 07:41:49;;;;;;;2.47;1.45;;;19.40;99.90;;;;;;5000702;28;20041;-62
2022/08/08 07:44:19;;;;;;;4.25;1.80;;;19.40;99.90;;;;;;5014765;28;20887;-61
2022/08/08 07:46:45;;;;;;;2.88;1.27;;;19.30;99.90;;;;;;5018998;28;20058;-60
2022/08/08 07:49:12;;;;;;;4.68;1.45;;;19.20;99.90;;;;;;5017785;28;20531;-61
2022/08/08 07:51:40;;;;;;;7.15;1.67;;;19.20;99.90;;;;;;5006355;28;23767;-61
2022/08/08 07:54:45;;;;;;;4.47;1.45;;;19.20;99.90;;;;;;5011626;28;20509;-60
2022/08/08 07:57:33;;;;;;;3.50;1.50;;;19.20;99.90;;;;;;4994424;28;20050;-60
2022/08/08 08:00:11;;;;;;;6.57;1.65;;;19.40;99.90;;;;;;5005914;28;20176;-61
2022/08/08 08:02:41;;;;;;;4.80;1.63;;;19.10;99.90;;;;;;5012009;28;20038;-61
2022/08/08 08:05:28;;;;;;;4.10;1.42;;;19.10;99.90;;;;;;5019047;28;20532;-61
2022/08/08 08:08:01;;;;;;;3.05;1.50;;;19.10;99.90;;;;;;5012470;28;20547;-60
2022/08/08 08:10:29;;;;;;;4.13;1.30;;;19.10;99.90;;;;;;5017353;28;20037;-61
2022/08/08 08:13:20;;;;;;;4.03;1.35;;;19.00;99.90;;;;;;5016943;28;20132;-61
2022/08/08 08:16:01;;;;;;;4.35;1.58;;;19.00;99.90;;;;;;5015137;28;20233;-61
2022/08/08 08:18:43;;;;;;;7.75;2.00;;;19.00;99.90;;;;;;5023087;28;20049;-61
2022/08/08 08:21:09;;;;;;;2.28;1.40;;;19.00;99.90;;;;;;5017638;28;20095;-61
2022/08/08 08:23:36;;;;;;;3.47;1.23;;;19.10;99.90;;;;;;5024020;28;20417;-61
2022/08/08 08:26:03;;;;;;;2.60;1.35;;;19.10;99.90;;;;;;5001065;28;20048;-64
2022/08/08 08:28:29;;;;;;;3.90;1.30;;;19.10;99.90;;;;;;5013642;28;20073;-61
2022/08/08 08:30:57;;;;;;;5.22;2.10;;;19.10;99.90;;;;;;5020317;28;20068;-61
2022/08/08 08:33:23;;;;;;;6.15;1.60;;;19.20;99.90;;;;;;5011180;28;20492;-61
2022/08/08 08:35:49;;;;;;;4.50;1.60;;;19.20;99.90;;;;;;5014032;23;20057;-57
2022/08/08 08:38:15;;;;;;;3.58;1.67;;;19.30;99.90;;;;;;5016320;28;20046;-57
2022/08/08 08:40:41;;;;;;;4.15;1.60;;;19.40;99.90;;;;;;5025027;28;20104;-58
2022/08/08 08:43:09;;;;;;;8.82;1.80;;;19.50;99.90;;;;;;5017115;28;20374;-57
2022/08/08 08:45:36;;;;;;;5.38;1.80;;;19.60;99.90;;;;;;5004025;28;20053;-57
2022/08/08 08:48:03;;;;;;;5.95;1.50;;;19.60;99.90;;;;;;5020251;28;20092;-56
2022/08/08 08:50:30;;;;;;;5.00;1.70;;;19.70;99.90;;;;;;5025649;28;20069;-57
2022/08/08 08:52:58;;;;;;;2.47;1.40;;;19.70;99.90;;;;;;5001682;28;20045;-57
2022/08/08 08:55:25;;;;;;;4.93;1.70;;;19.70;99.90;;;;;;5016110;28;20045;-57
2022/08/08 08:57:54;;;;;;;2.55;1.55;;;19.70;99.90;;;;;;5015666;28;20121;-57
2022/08/08 09:00:20;;;;;;;4.35;1.35;;;19.70;99.90;;;;;;5018034;28;20102;-56
2022/08/08 09:02:49;;;;;;;3.30;1.60;;;19.70;99.90;;;;;;5017907;28;20046;-56
2022/08/08 09:05:15;;;;;;;4.90;1.80;;;19.70;99.90;;;;;;5021448;28;20220;-57
2022/08/08 09:07:43;;;;;;;3.55;1.60;;;19.60;99.90;;;;;;5021522;28;20144;-57
2022/08/08 09:10:12;;;;;;;3.38;1.50;;;19.60;99.90;;;;;;5023395;28;20267;-58
2022/08/08 09:12:40;;;;;;;6.18;1.70;;;19.60;99.90;;;;;;5018793;28;20073;-57
2022/08/08 09:15:06;;;;;;;2.70;1.45;;;19.60;99.90;;;;;;5023018;28;20504;-57
2022/08/08 09:17:33;;;;;;;3.83;1.60;;;19.50;99.90;;;;;;4999996;28;20046;-57
2022/08/08 09:20:00;;;;;;;5.07;1.73;;;19.50;99.90;;;;;;5018229;28;20048;-57
2022/08/08 09:22:26;;;;;;;4.57;1.83;;;19.50;99.90;;;;;;5019259;28;20539;-55
2022/08/08 09:24:53;;;;;;;6.68;2.25;;;19.50;99.90;;;;;;4999573;28;20038;-57
2022/08/08 09:27:20;;;;;;;8.60;2.40;;;19.40;99.90;;;;;;5007021;28;20522;-57
2022/08/08 09:29:51;;;;;;;6.60;2.42;;;19.40;99.90;;;;;;5014831;28;20550;-55
2022/08/08 09:32:43;;;;;;;5.22;2.22;;;19.30;99.90;;;;;;5024501;28;20049;-56
2022/08/08 09:35:14;;;;;;;5.90;2.03;;;19.30;99.90;;;;;;5001716;28;20050;-57
2022/08/08 09:37:47;;;;;;;5.85;2.22;;;19.30;99.90;;;;;;5014536;28;20089;-56
2022/08/08 09:40:15;;;;;;;5.10;2.28;;;19.30;99.90;;;;;;5011838;28;20080;-57
2022/08/08 09:43:10;;;;;;;5.57;2.60;;;19.30;99.90;;;;;;5019021;28;20042;-58
2022/08/08 09:46:01;;;;;;;3.58;2.13;;;19.40;99.90;;;;;;5019322;28;20041;-58
2022/08/08 09:48:33;;;;;;;4.50;2.47;;;19.40;99.90;;;;;;5012591;28;20582;-57
2022/08/08 09:51:00;;;;;;;5.60;2.83;;;19.40;99.90;;;;;;4992156;28;20049;-58
2022/08/08 09:53:41;;;;;;;6.07;2.70;;;19.40;99.90;;;;;;5012965;28;20061;-56
2022/08/08 09:56:10;;;;;;;5.60;2.25;;;19.40;99.90;;;;;;5014150;28;20392;-55
2022/08/08 09:58:47;;;;;;;9.05;2.65;;;19.40;99.90;;;;;;5012603;28;20050;-59
2022/08/08 10:01:18;;;;;;;6.93;2.83;;;19.50;99.90;;;;;;5017334;28;20038;-56
2022/08/08 10:03:47;;;;;;;4.68;2.55;;;19.50;99.90;;;;;;5016611;28;20057;-57
2022/08/08 10:06:17;;;;;;;6.75;3.28;;;19.50;99.90;;;;;;5017652;28;20128;-56
2022/08/08 10:08:50;;;;;;;5.38;3.00;;;19.60;99.90;;;;;;4982243;28;20484;-55
2022/08/08 10:11:20;;;;;;;5.50;2.83;;;19.60;99.90;;;;;;5008219;28;20044;-56
2022/08/08 10:13:54;;;;;;;4.63;2.55;;;19.60;99.90;;;;;;5017408;28;20042;-56
2022/08/08 10:16:21;;;;;;;5.38;2.15;;;19.70;99.90;;;;;;5000566;28;20053;-56
2022/08/08 10:18:47;;;;;;;5.43;2.20;;;19.70;99.90;;;;;;5007500;28;20045;-57
2022/08/08 10:21:20;;;;;;;5.93;2.92;;;19.70;99.90;;;;;;5007936;28;20087;-55
2022/08/08 10:24:01;;;;;;;6.72;3.05;;;19.70;99.90;;;;;;5001611;28;20030;-57
2022/08/08 10:26:40;;;;;;;5.45;2.40;;;19.80;99.90;;;;;;5004086;28;20052;-57
2022/08/08 10:29:22;;;;;;;5.90;2.72;;;19.70;99.90;;;;;;5009392;28;20045;-57
2022/08/08 10:34:52;;;;;;;4.00;2.10;;;19.70;99.90;;;;;;5008827;28;20121;-55
2022/08/08 10:37:30;;;;;;;2.80;1.90;;;19.80;99.90;;;;;;5014348;28;20555;-57
2022/08/08 10:39:58;;;;;;;5.88;2.40;;;19.90;99.90;;;;;;5005318;28;20033;-56
2022/08/08 10:42:32;;;;;;;7.15;2.40;;;19.90;99.90;;;;;;5020500;28;20034;-58
2022/08/08 10:45:01;;;;;;;4.45;2.25;;;19.90;99.90;;;;;;5018932;28;20491;-57
2022/08/08 10:47:27;;;;;;;6.15;2.75;;;20.00;99.90;;;;;;5006869;28;20096;-55
2022/08/08 10:49:55;;;;;;;3.17;1.58;;;20.00;99.90;;;;;;5001791;28;20045;-56
2022/08/08 10:52:37;;;;;;;3.90;1.77;;;20.00;99.90;;;;;;5012311;28;20041;-57
2022/08/08 10:55:08;;;;;;;3.97;1.75;;;20.00;99.90;;;;;;4997484;28;20121;-57
2022/08/08 10:57:41;;;;;;;5.43;2.08;;;20.00;99.90;;;;;;5006634;28;20041;-57
2022/08/08 11:00:09;;;;;;;6.00;2.30;;;20.00;99.90;;;;;;5015065;28;20538;-57
2022/08/08 11:02:35;;;;;;;4.45;1.85;;;20.10;99.90;;;;;;5012953;28;20037;-57
2022/08/08 11:05:13;;;;;;;6.25;2.30;;;20.20;99.90;;;;;;5017303;28;20138;-56
2022/08/08 11:07:41;;;;;;;5.72;2.08;;;20.40;99.90;;;;;;5018708;28;20049;-58
2022/08/08 11:10:16;;;;;;;2.50;1.70;;;20.50;99.90;;;;;;4991165;28;20046;-58
2022/08/08 11:12:50;;;;;;;4.25;1.77;;;20.60;99.90;;;;;;5010936;28;20122;-56
2022/08/08 11:15:18;;;;;;;3.55;1.95;;;20.50;99.90;;;;;;5020148;28;20044;-57
2022/08/08 11:17:45;;;;;;;3.65;1.60;;;20.60;99.90;;;;;;4995399;28;20124;-56
2022/08/08 11:20:33;;;;;;;4.53;2.03;;;20.80;99.90;;;;;;5000025;28;20041;-57
2022/08/08 11:23:00;;;;;;;3.80;2.28;;;20.90;99.90;;;;;;5012587;28;21162;-57
2022/08/08 11:25:28;;;;;;;3.67;1.60;;;21.10;99.90;;;;;;5015361;28;20561;-59
2022/08/08 11:27:57;;;;;;;2.95;1.35;;;21.20;99.90;;;;;;5020536;28;20049;-57
2022/08/08 11:30:27;;;;;;;3.13;1.45;;;21.10;99.90;;;;;;5018014;28;20041;-56
2022/08/08 11:32:55;;;;;;;3.33;1.40;;;21.10;99.90;;;;;;4996699;28;20100;-57
2022/08/08 11:35:22;;;;;;;2.63;1.58;;;20.90;99.90;;;;;;5010331;28;20041;-57
2022/08/08 11:37:47;;;;;;;3.28;1.45;;;20.80;99.90;;;;;;5017132;28;20074;-57
2022/08/08 11:40:14;;;;;;;3.67;1.85;;;20.70;99.90;;;;;;5014606;28;20129;-57
2022/08/08 11:42:41;;;;;;;7.65;2.00;;;20.60;99.90;;;;;;5011456;28;20500;-58
2022/08/08 11:45:09;;;;;;;3.20;1.85;;;20.50;99.90;;;;;;5007831;28;20674;-56
2022/08/08 11:47:36;;;;;;;4.65;1.88;;;20.40;99.90;;;;;;5014535;28;20776;-57
2022/08/08 11:50:07;;;;;;;6.45;1.80;;;20.40;99.90;;;;;;5010587;28;20050;-57
2022/08/08 11:52:35;;;;;;;4.13;2.40;;;20.40;99.90;;;;;;5014545;28;20472;-58
2022/08/08 11:55:01;;;;;;;6.53;2.47;;;20.30;99.90;;;;;;4995524;28;20141;-56
2022/08/08 11:57:28;;;;;;;6.05;1.95;;;20.30;99.90;;;;;;5015356;28;20049;-56
2022/08/08 12:00:00;;;;;;;4.70;2.10;;;20.20;99.90;;;;;;4997340;28;20107;-59
2022/08/08 12:02:28;;;;;;;5.72;2.20;;;20.20;99.90;;;;;;4996264;28;20203;-58
2022/08/08 12:05:05;;;;;;;4.35;2.22;;;20.30;99.90;;;;;;5004440;28;20365;-57
2022/08/08 12:07:42;;;;;;;5.82;2.05;;;20.40;99.90;;;;;;4995077;28;20033;-58
2022/08/08 12:10:12;;;;;;;5.95;1.80;;;20.40;99.90;;;;;;5007608;28;20041;-58
2022/08/08 12:12:43;;;;;;;4.03;2.00;;;20.50;99.90;;;;;;5016971;28;20045;-58
2022/08/08 12:15:09;;;;;;;2.53;1.60;;;20.50;99.90;;;;;;5012342;28;20050;-56
2022/08/08 12:17:38;;;;;;;3.58;1.95;;;20.60;99.90;;;;;;5002351;28;20128;-58
2022/08/08 12:20:05;;;;;;;3.53;1.65;;;20.70;99.90;;;;;;5007321;28;20045;-58
2022/08/08 12:22:31;;;;;;;4.80;2.25;;;20.80;99.90;;;;;;5001894;28;20198;-57
2022/08/08 12:25:01;;;;;;;6.10;2.53;;;20.90;99.90;;;;;;5018420;28;20042;-57
2022/08/08 12:27:37;;;;;;;4.32;1.83;;;21.00;99.90;;;;;;5014700;28;20037;-58
2022/08/08 12:30:04;;;;;;;2.80;1.60;;;20.90;99.90;;;;;;5019093;28;20045;-58
2022/08/08 12:32:43;;;;;;;3.40;1.45;;;21.00;99.90;;;;;;4998551;28;20037;-56
2022/08/08 12:35:20;;;;;;;4.43;1.60;;;21.00;99.90;;;;;;5010792;28;20049;-57
2022/08/08 12:38:07;;;;;;;3.72;1.60;;;20.90;99.90;;;;;;4992194;28;20038;-56
2022/08/08 12:40:47;;;;;;;2.88;1.80;;;21.00;99.90;;;;;;5007771;28;20416;-58
2022/08/08 12:43:14;;;;;;;3.90;1.98;;;21.10;99.90;;;;;;5013322;28;20069;-53
2022/08/08 12:45:45;;;;;;;4.25;1.80;;;21.30;99.90;;;;;;5011506;28;20049;-55
2022/08/08 12:48:22;;;;;;;2.67;1.30;;;21.30;99.90;;;;;;5011283;28;20141;-53
2022/08/08 12:50:53;;;;;;;2.85;1.50;;;21.30;99.90;;;;;;5021553;28;20037;-57
2022/08/08 12:53:26;;;;;;;5.03;1.85;;;21.40;99.90;;;;;;5009420;28;20057;-57
2022/08/08 12:56:02;;;;;;;6.57;1.83;;;21.80;99.90;;;;;;5008082;28;20045;-58
2022/08/08 12:58:44;;;;;;;5.45;1.60;;;22.30;99.90;;;;;;5025620;28;20049;-58
2022/08/08 13:01:10;;;;;;;4.78;1.48;;;22.50;99.60;;;;;;4999420;28;20424;-57
2022/08/08 13:03:44;;;;;;;2.35;1.35;;;22.60;99.70;;;;;;5019570;28;20084;-58
2022/08/08 13:06:14;;;;;;;2.28;0.90;;;22.70;98.40;;;;;;5038715;28;20049;-55
2022/08/08 13:08:45;;;;;;;2.70;1.10;;;22.60;97.70;;;;;;5021464;28;20103;-57
2022/08/08 13:11:22;;;;;;;3.35;1.25;;;22.30;98.00;;;;;;5018152;28;20038;-57
2022/08/08 13:14:10;;;;;;;3.05;1.73;;;22.20;98.80;;;;;;5003558;28;20041;-58
2022/08/08 13:16:36;;;;;;;4.22;1.27;;;22.30;99.20;;;;;;5002360;28;20049;-58
2022/08/08 13:19:03;;;;;;;5.25;1.55;;;22.20;99.40;;;;;;5025716;28;20393;-58
2022/08/08 13:21:41;;;;;;;3.55;1.38;;;22.20;99.40;;;;;;5019515;28;20049;-58
2022/08/08 13:24:07;;;;;;;3.42;1.40;;;22.10;99.60;;;;;;5021999;28;20029;-56
2022/08/08 13:26:33;;;;;;;3.95;1.48;;;22.10;99.80;;;;;;5017797;28;20041;-58